Terminal Aerodrome Forecast
Issued by NWS

Home | Current Version | Previous Version | Text Only | Print | Product List | Glossary On
Versions: 1 2 3 4 5 6 7 8 9 10 11 12 13 14 15 16 17 18 19 20 21 22 23 24 25 26
544
FTUS45 KRIW 241126
TAFJAC
TAF
KJAC 241126Z 2412/2512 VRB05KT P6SM BKN060
     FM241900 VRB05KT P6SM VCSH BKN025
     FM242100 17007KT 4SM -SHSNRA OVC020
     FM250100 19008KT P6SM VCSH SCT020 OVC035
      AMD LTD TO CLD VIS AND WIND=

USA.gov is the U.S. government's official web portal to all federal, state and local government web resources and services.